createdAt,value
2019-05-11T00:02:19.439Z,12.00
2019-05-11T00:04:48.019Z,12.10
2019-05-11T00:07:16.667Z,12.40
2019-05-11T00:09:57.481Z,12.40
2019-05-11T00:12:15.440Z,12.30
2019-05-11T00:14:44.030Z,12.10
2019-05-11T00:17:12.623Z,12.00
2019-05-11T00:19:41.169Z,11.80
2019-05-11T00:22:09.706Z,12.00
2019-05-11T00:24:38.285Z,12.10
2019-05-11T00:27:06.822Z,12.00
2019-05-11T00:29:35.398Z,11.80
2019-05-11T00:32:04.018Z,11.80
2019-05-11T00:34:32.590Z,11.80
2019-05-11T00:37:01.162Z,11.80
2019-05-11T00:39:29.718Z,12.10
2019-05-11T00:41:58.334Z,12.10
2019-05-11T00:44:26.905Z,12.10
2019-05-11T00:46:55.546Z,12.20
2019-05-11T00:49:24.092Z,12.20
2019-05-11T00:51:53.218Z,12.00
2019-05-11T00:54:21.753Z,11.90
2019-05-11T00:56:50.401Z,11.80
2019-05-11T00:59:21.693Z,11.60
2019-05-11T01:01:49.199Z,11.90
2019-05-11T01:04:17.827Z,11.90
2019-05-11T01:06:46.848Z,11.90
2019-05-11T01:09:15.401Z,11.90
2019-05-11T01:11:44.031Z,12.00
2019-05-11T01:14:12.581Z,11.90
2019-05-11T01:16:41.354Z,11.80
2019-05-11T01:19:09.890Z,11.60
2019-05-11T01:21:38.474Z,11.30
2019-05-11T01:24:07.018Z,11.30
2019-05-11T01:26:35.589Z,11.10
2019-05-11T01:29:04.234Z,11.30
2019-05-11T01:31:32.774Z,11.30
2019-05-11T01:34:01.367Z,11.50
2019-05-11T01:36:29.900Z,11.40
2019-05-11T01:38:58.476Z,11.40
2019-05-11T01:41:27.045Z,11.20
2019-05-11T01:43:55.582Z,10.90
2019-05-11T01:46:24.086Z,11.00
2019-05-11T01:48:52.626Z,11.20
2019-05-11T01:51:21.135Z,11.30
2019-05-11T01:53:49.691Z,11.20
2019-05-11T01:56:18.258Z,10.90
2019-05-11T01:58:46.806Z,11.00
2019-05-11T02:01:15.395Z,11.00
2019-05-11T02:03:43.921Z,11.00
2019-05-11T02:06:12.393Z,11.10
2019-05-11T02:08:40.980Z,10.90
2019-05-11T02:11:15.944Z,11.00
2019-05-11T02:13:39.746Z,10.80
2019-05-11T02:16:08.311Z,10.90
2019-05-11T02:18:36.865Z,11.00
2019-05-11T02:21:05.607Z,10.90
2019-05-11T02:23:34.126Z,10.90
2019-05-11T02:26:02.635Z,10.90
2019-05-11T02:28:31.209Z,10.90
2019-05-11T02:30:59.791Z,10.90
2019-05-11T02:33:28.352Z,11.10
2019-05-11T02:35:56.927Z,11.20
2019-05-11T02:38:25.509Z,11.30
2019-05-11T02:40:54.042Z,11.30
2019-05-11T02:43:22.623Z,11.40
2019-05-11T02:45:51.231Z,11.30
2019-05-11T02:48:19.875Z,11.20
2019-05-11T02:50:48.900Z,11.00
2019-05-11T02:53:18.370Z,11.00
2019-05-11T02:55:48.971Z,11.20
2019-05-11T02:58:17.704Z,11.20
2019-05-11T03:00:46.381Z,11.00
2019-05-11T03:03:14.958Z,11.00
2019-05-11T03:05:43.572Z,11.10
2019-05-11T03:08:12.205Z,11.10
2019-05-11T03:10:40.760Z,11.00
2019-05-11T03:13:09.407Z,11.00
2019-05-11T03:15:37.942Z,10.90
2019-05-11T03:18:06.436Z,10.80
2019-05-11T03:20:35.018Z,10.90
2019-05-11T03:23:03.584Z,10.90
2019-05-11T03:25:32.115Z,10.90
2019-05-11T03:28:00.715Z,10.80
2019-05-11T03:30:29.256Z,10.90
2019-05-11T03:32:57.823Z,10.90
2019-05-11T03:35:26.427Z,10.90
2019-05-11T03:37:55.016Z,10.80
2019-05-11T03:40:23.628Z,11.00
2019-05-11T03:42:52.442Z,11.00
2019-05-11T03:45:21.084Z,11.00
2019-05-11T03:47:49.661Z,10.90
2019-05-11T03:50:18.370Z,10.80
2019-05-11T03:52:46.948Z,10.70
2019-05-11T03:55:15.700Z,10.70
2019-05-11T03:57:45.081Z,10.60
2019-05-11T04:00:13.896Z,10.60
2019-05-11T04:02:42.583Z,10.60
2019-05-11T04:05:11.310Z,10.60
2019-05-11T04:07:39.849Z,10.60
2019-05-11T04:10:08.821Z,10.50
2019-05-11T04:12:37.302Z,10.60
2019-05-11T04:15:07.622Z,10.50
2019-05-11T04:17:36.224Z,10.60
2019-05-11T04:20:06.698Z,10.70
2019-05-11T04:22:35.347Z,10.50
2019-05-11T04:25:05.167Z,10.50
2019-05-11T04:27:33.701Z,10.60
2019-05-11T04:30:02.292Z,10.60
2019-05-11T04:32:30.955Z,10.60
2019-05-11T04:34:59.485Z,10.50
2019-05-11T04:37:28.059Z,10.60
2019-05-11T04:39:56.630Z,10.50
2019-05-11T04:42:25.107Z,10.60
2019-05-11T04:44:53.686Z,10.60
2019-05-11T04:47:22.215Z,10.60
2019-05-11T04:49:50.853Z,10.60
2019-05-11T04:52:19.365Z,10.50
2019-05-11T04:54:48.001Z,10.60
2019-05-11T04:57:16.581Z,10.60
2019-05-11T04:59:45.135Z,10.70
2019-05-11T05:02:13.707Z,10.60
2019-05-11T05:04:42.238Z,10.60
2019-05-11T05:07:12.304Z,10.60
2019-05-11T05:09:42.564Z,10.70
2019-05-11T05:12:14.155Z,10.80
2019-05-11T05:14:41.781Z,10.70
2019-05-11T05:17:10.593Z,10.60
2019-05-11T05:19:39.499Z,10.60
2019-05-11T05:22:08.033Z,10.60
2019-05-11T05:24:36.608Z,10.50
2019-05-11T05:27:05.450Z,10.50
2019-05-11T05:29:34.025Z,10.50
2019-05-11T05:32:03.015Z,10.50
2019-05-11T05:34:31.601Z,10.60
2019-05-11T05:37:00.178Z,10.80
2019-05-11T05:39:28.642Z,10.80
2019-05-11T05:41:57.736Z,10.80
2019-05-11T05:44:27.794Z,10.80
2019-05-11T05:46:56.790Z,10.80
2019-05-11T05:49:25.319Z,11.00
2019-05-11T05:51:57.815Z,10.90
2019-05-11T05:54:24.359Z,10.90
2019-05-11T05:56:52.879Z,10.90
2019-05-11T05:59:21.413Z,10.90
2019-05-11T06:01:49.942Z,10.90
2019-05-11T06:04:18.441Z,10.90
2019-05-11T06:06:46.904Z,10.80
2019-05-11T06:09:15.479Z,10.80
2019-05-11T06:11:44.017Z,10.70
2019-05-11T06:14:12.598Z,10.60
2019-05-11T06:16:41.205Z,10.70
2019-05-11T06:19:09.778Z,10.70
2019-05-11T06:21:38.247Z,10.90
2019-05-11T06:24:08.380Z,11.00
2019-05-11T06:26:37.024Z,10.80
2019-05-11T06:29:05.668Z,11.00
2019-05-11T06:31:34.214Z,11.00
2019-05-11T06:34:02.773Z,11.00
2019-05-11T06:36:31.313Z,11.00
2019-05-11T06:38:59.876Z,10.80
2019-05-11T06:41:28.348Z,11.00
2019-05-11T06:44:01.896Z,11.00
2019-05-11T06:46:27.191Z,11.00
2019-05-11T06:48:55.651Z,11.10
2019-05-11T06:51:24.230Z,11.10
2019-05-11T06:53:52.789Z,11.10
2019-05-11T06:56:21.635Z,11.10
2019-05-11T06:58:50.219Z,11.20
2019-05-11T07:01:18.762Z,11.00
2019-05-11T07:03:47.347Z,11.20
2019-05-11T07:06:16.029Z,11.10
2019-05-11T07:08:44.590Z,11.30
2019-05-11T07:11:13.122Z,11.40
2019-05-11T07:13:41.697Z,11.40
2019-05-11T07:16:10.167Z,11.40
2019-05-11T07:18:38.739Z,11.40
2019-05-11T07:21:07.285Z,11.50
2019-05-11T07:23:35.848Z,11.50
2019-05-11T07:26:04.448Z,11.40
2019-05-11T07:28:33.161Z,11.40
2019-05-11T07:31:01.681Z,11.50
2019-05-11T07:33:30.219Z,11.50
2019-05-11T07:35:58.798Z,11.60
2019-05-11T07:38:27.969Z,11.60
2019-05-11T07:40:58.239Z,11.70
2019-05-11T07:43:28.740Z,11.60
2019-05-11T07:45:58.479Z,11.60
2019-05-11T07:48:27.896Z,11.70
2019-05-11T07:50:58.377Z,11.70
2019-05-11T07:53:27.941Z,11.70
2019-05-11T07:55:57.792Z,11.60
2019-05-11T07:58:28.515Z,11.70
2019-05-11T08:00:58.139Z,11.70
2019-05-11T08:03:28.388Z,11.70
2019-05-11T08:05:58.278Z,11.80
2019-05-11T08:08:28.341Z,11.50
2019-05-11T08:10:58.696Z,11.60
2019-05-11T08:13:28.234Z,11.60
2019-05-11T08:15:57.873Z,11.50
2019-05-11T08:18:28.306Z,11.40
2019-05-11T08:20:58.241Z,11.30
2019-05-11T08:23:28.527Z,11.20
2019-05-11T08:25:58.076Z,11.40
2019-05-11T08:28:28.774Z,11.60
2019-05-11T08:30:58.015Z,11.80
2019-05-11T08:33:28.448Z,11.90
2019-05-11T08:35:58.278Z,11.90
2019-05-11T08:38:28.577Z,11.90
2019-05-11T08:40:59.065Z,11.90
2019-05-11T08:43:28.499Z,11.80
2019-05-11T08:45:57.854Z,12.00
2019-05-11T08:48:28.322Z,11.90
2019-05-11T08:50:58.231Z,11.90
2019-05-11T08:53:28.469Z,11.90
2019-05-11T08:55:58.856Z,11.70
2019-05-11T08:58:27.853Z,11.70
2019-05-11T09:00:58.310Z,11.80
2019-05-11T09:03:28.413Z,12.00
2019-05-11T09:05:57.908Z,12.10
2019-05-11T09:08:28.301Z,12.10
2019-05-11T09:10:58.202Z,12.00
2019-05-11T09:13:27.979Z,11.70
2019-05-11T09:15:58.849Z,11.70
2019-05-11T09:18:28.015Z,11.80
2019-05-11T09:20:57.702Z,12.00
2019-05-11T09:23:34.654Z,11.90
2019-05-11T09:25:58.349Z,11.90
2019-05-11T09:28:29.282Z,11.90
2019-05-11T09:30:57.768Z,12.20
2019-05-11T09:33:28.346Z,12.20
2019-05-11T09:35:58.394Z,12.40
2019-05-11T09:38:27.754Z,12.60
2019-05-11T09:40:58.513Z,12.50
2019-05-11T09:43:28.354Z,12.50
2019-05-11T09:45:58.233Z,12.30
2019-05-11T09:48:28.388Z,12.30
2019-05-11T09:50:58.743Z,12.40
2019-05-11T09:53:28.331Z,12.40
2019-05-11T09:55:58.715Z,12.50
2019-05-11T09:58:28.141Z,12.40
2019-05-11T10:00:58.621Z,12.40
2019-05-11T10:03:28.143Z,12.50
2019-05-11T10:05:57.963Z,12.30
2019-05-11T10:08:28.679Z,12.30
2019-05-11T10:10:58.071Z,12.10
2019-05-11T10:13:27.816Z,12.10
2019-05-11T10:16:04.643Z,12.20
2019-05-11T10:18:28.230Z,12.20
2019-05-11T10:20:58.641Z,12.10
2019-05-11T10:23:27.849Z,12.10
2019-05-11T10:25:58.549Z,12.10
2019-05-11T10:28:28.437Z,12.30
2019-05-11T10:30:57.867Z,12.60
2019-05-11T10:33:28.109Z,12.60
2019-05-11T10:35:58.791Z,12.70
2019-05-11T10:38:28.547Z,12.70
2019-05-11T10:40:58.122Z,12.70
2019-05-11T10:43:28.790Z,12.80
2019-05-11T10:45:58.806Z,13.20
2019-05-11T10:48:28.223Z,13.50
2019-05-11T10:50:57.609Z,13.60
2019-05-11T10:53:27.857Z,13.60
2019-05-11T10:55:58.136Z,13.50
2019-05-11T10:58:28.565Z,13.40
2019-05-11T11:00:58.214Z,13.10
2019-05-11T11:03:28.388Z,13.20
2019-05-11T11:05:58.063Z,13.30
2019-05-11T11:08:27.824Z,13.50
2019-05-11T11:10:58.563Z,13.50
2019-05-11T11:13:28.127Z,13.30
2019-05-11T11:15:58.171Z,13.10
2019-05-11T11:18:28.806Z,13.20
2019-05-11T11:20:58.108Z,13.30
2019-05-11T11:23:28.502Z,13.10
2019-05-11T11:25:58.550Z,13.00
2019-05-11T11:28:28.008Z,12.90
2019-05-11T11:30:58.484Z,12.60
2019-05-11T11:33:27.703Z,12.50
2019-05-11T11:35:57.966Z,12.60
2019-05-11T11:38:28.573Z,12.50
2019-05-11T11:40:58.722Z,12.50
2019-05-11T11:43:28.729Z,12.50
2019-05-11T11:45:58.040Z,12.50
2019-05-11T11:48:28.031Z,12.60
2019-05-11T11:50:58.488Z,12.60
2019-05-11T11:53:27.911Z,12.60
2019-05-11T11:55:58.628Z,12.60
2019-05-11T11:58:27.695Z,12.40
2019-05-11T12:00:58.545Z,12.30
2019-05-11T12:03:27.724Z,12.10
2019-05-11T12:05:58.117Z,12.20
2019-05-11T12:08:28.256Z,12.20
2019-05-11T12:10:58.839Z,12.10
2019-05-11T12:13:29.489Z,12.20
2019-05-11T12:15:58.485Z,12.20
2019-05-11T12:18:28.690Z,12.20
2019-05-11T12:20:58.607Z,12.30
2019-05-11T12:23:28.489Z,12.10
2019-05-11T12:25:58.036Z,11.90
2019-05-11T12:28:27.614Z,12.00
2019-05-11T12:30:58.379Z,11.90
2019-05-11T12:33:27.924Z,11.80
2019-05-11T12:35:58.540Z,11.80
2019-05-11T12:38:27.656Z,11.80
2019-05-11T12:40:57.882Z,11.60
2019-05-11T12:43:27.754Z,11.60
2019-05-11T12:45:58.549Z,11.60
2019-05-11T12:48:28.464Z,11.60
2019-05-11T12:50:58.830Z,11.60
2019-05-11T12:53:27.979Z,11.50
2019-05-11T12:55:58.841Z,11.60
2019-05-11T12:58:28.126Z,11.60
2019-05-11T13:00:58.497Z,11.50
2019-05-11T13:03:27.879Z,11.60
2019-05-11T13:05:58.425Z,11.40
2019-05-11T13:08:27.713Z,11.50
2019-05-11T13:10:58.267Z,11.50
2019-05-11T13:13:28.581Z,11.50
2019-05-11T13:15:58.490Z,11.50
2019-05-11T13:18:27.896Z,11.50
2019-05-11T13:20:58.622Z,11.60
2019-05-11T13:23:27.841Z,11.60
2019-05-11T13:25:58.381Z,11.60
2019-05-11T13:28:28.407Z,11.60
2019-05-11T13:30:57.950Z,11.60
2019-05-11T13:33:28.038Z,11.60
2019-05-11T13:35:57.872Z,11.60
2019-05-11T13:38:28.295Z,11.50
2019-05-11T13:40:58.444Z,11.50
2019-05-11T13:43:28.103Z,11.40
2019-05-11T13:45:58.379Z,11.50
2019-05-11T13:48:28.119Z,11.50
2019-05-11T13:50:58.193Z,11.50
2019-05-11T13:53:27.672Z,11.50
2019-05-11T13:55:58.531Z,11.60
2019-05-11T13:58:27.776Z,11.70
2019-05-11T14:00:58.366Z,11.90
2019-05-11T14:03:27.715Z,12.00
2019-05-11T14:05:58.190Z,11.80
2019-05-11T14:08:27.813Z,11.90
2019-05-11T14:10:58.018Z,11.80
2019-05-11T14:13:28.604Z,11.70
2019-05-11T14:15:58.682Z,11.70
2019-05-11T14:18:28.244Z,11.70
2019-05-11T14:20:58.657Z,11.50
2019-05-11T14:23:30.806Z,11.50
2019-05-11T14:25:57.710Z,11.50
2019-05-11T14:28:28.522Z,11.30
2019-05-11T14:30:57.851Z,11.30
2019-05-11T14:33:28.234Z,11.20
2019-05-11T14:35:57.854Z,11.30
2019-05-11T14:38:28.287Z,11.30
2019-05-11T14:40:58.603Z,11.40
2019-05-11T14:43:27.706Z,11.30
2019-05-11T14:45:57.842Z,11.40
2019-05-11T14:48:29.863Z,11.30
2019-05-11T14:50:59.093Z,11.40
2019-05-11T14:53:28.395Z,11.50
2019-05-11T14:55:58.504Z,11.50
2019-05-11T14:58:28.022Z,11.60
2019-05-11T15:00:58.305Z,11.70
2019-05-11T15:03:28.721Z,11.60
2019-05-11T15:05:58.291Z,11.40
2019-05-11T15:08:28.717Z,11.40
2019-05-11T15:10:57.660Z,11.40
2019-05-11T15:13:28.655Z,11.50
2019-05-11T15:15:58.534Z,11.40
2019-05-11T15:18:37.923Z,11.40
2019-05-11T15:20:58.032Z,11.30
2019-05-11T15:23:28.477Z,11.40
2019-05-11T15:25:58.698Z,11.40
2019-05-11T15:28:28.475Z,11.40
2019-05-11T15:30:58.707Z,11.40
2019-05-11T15:33:27.923Z,11.30
2019-05-11T15:35:58.292Z,11.30
2019-05-11T15:38:28.420Z,11.20
2019-05-11T15:40:57.943Z,11.20
2019-05-11T15:43:28.227Z,11.10
2019-05-11T15:45:57.850Z,11.20
2019-05-11T15:48:26.695Z,11.20
2019-05-11T15:50:57.688Z,11.20
2019-05-11T15:53:25.474Z,11.20
2019-05-11T15:55:54.015Z,11.10
2019-05-11T15:58:22.509Z,11.00
2019-05-11T16:00:51.045Z,11.00
2019-05-11T16:03:19.610Z,10.90
2019-05-11T16:05:48.078Z,10.90
2019-05-11T16:08:18.820Z,10.80
2019-05-11T16:10:48.963Z,10.80
2019-05-11T16:13:18.109Z,10.60
2019-05-11T16:15:47.685Z,10.70
2019-05-11T16:18:18.672Z,10.70
2019-05-11T16:20:49.903Z,10.70
2019-05-11T16:23:17.540Z,10.70
2019-05-11T16:25:48.911Z,10.70
2019-05-11T16:28:19.272Z,10.70
2019-05-11T16:30:48.147Z,10.70
2019-05-11T16:33:17.964Z,10.70
2019-05-11T16:35:49.012Z,10.60
2019-05-11T16:38:18.834Z,10.60
2019-05-11T16:40:48.111Z,10.50
2019-05-11T16:43:18.980Z,10.50
2019-05-11T16:45:48.862Z,10.40
2019-05-11T16:48:18.488Z,10.40
2019-05-11T16:50:47.222Z,10.30
2019-05-11T16:53:17.971Z,10.30
2019-05-11T16:55:48.372Z,10.30
2019-05-11T16:58:19.460Z,10.30
2019-05-11T17:00:48.754Z,10.20
2019-05-11T17:03:16.644Z,10.20
2019-05-11T17:05:45.274Z,10.20
2019-05-11T17:08:13.882Z,10.10
2019-05-11T17:10:44.022Z,10.10
2019-05-11T17:13:12.572Z,10.10
2019-05-11T17:15:41.130Z,10.00
2019-05-11T17:18:09.670Z,9.80
2019-05-11T17:20:38.229Z,9.80
2019-05-11T17:23:06.759Z,9.90
2019-05-11T17:25:35.315Z,9.80
2019-05-11T17:28:06.777Z,9.80
2019-05-11T17:30:34.059Z,9.70
2019-05-11T17:33:02.606Z,9.70
2019-05-11T17:35:31.164Z,9.70
2019-05-11T17:37:59.693Z,9.70
2019-05-11T17:40:28.597Z,9.70
2019-05-11T17:42:58.500Z,9.70
2019-05-11T17:45:27.303Z,9.60
2019-05-11T17:47:57.933Z,9.50
2019-05-11T17:50:28.047Z,9.50
2019-05-11T17:52:56.229Z,9.60
2019-05-11T17:55:24.718Z,9.50
2019-05-11T17:57:53.989Z,9.60
2019-05-11T18:00:22.884Z,9.50
2019-05-11T18:02:51.417Z,9.50
2019-05-11T18:05:19.982Z,9.50
2019-05-11T18:07:48.516Z,9.60
2019-05-11T18:10:18.183Z,9.50
2019-05-11T18:12:48.623Z,9.60
2019-05-11T18:15:18.608Z,9.60
2019-05-11T18:17:48.661Z,9.40
2019-05-11T18:20:21.384Z,9.50
2019-05-11T18:22:49.137Z,9.40
2019-05-11T18:25:18.444Z,9.40
2019-05-11T18:27:48.275Z,9.40
2019-05-11T18:30:18.364Z,9.40
2019-05-11T18:32:49.081Z,9.30
2019-05-11T18:35:19.386Z,9.30
2019-05-11T18:37:47.831Z,9.30
2019-05-11T18:40:18.714Z,9.40
2019-05-11T18:42:48.836Z,9.40
2019-05-11T18:45:18.811Z,9.40
2019-05-11T18:47:48.874Z,9.40
2019-05-11T18:50:29.271Z,9.50
2019-05-11T18:52:49.002Z,9.40
2019-05-11T18:55:19.018Z,9.50
2019-05-11T18:57:49.007Z,9.30
2019-05-11T19:00:18.586Z,9.40
2019-05-11T19:02:49.421Z,9.40
2019-05-11T19:05:18.020Z,9.30
2019-05-11T19:07:48.242Z,9.30
2019-05-11T19:10:17.229Z,9.30
2019-05-11T19:12:48.452Z,9.20
2019-05-11T19:15:18.456Z,9.20
2019-05-11T19:17:48.755Z,9.20
2019-05-11T19:20:17.890Z,9.10
2019-05-11T19:22:46.688Z,9.20
2019-05-11T19:25:15.364Z,9.30
2019-05-11T19:27:44.036Z,9.20
2019-05-11T19:30:13.067Z,9.20
2019-05-11T19:32:41.630Z,9.20
2019-05-11T19:35:10.094Z,9.10
2019-05-11T19:37:39.224Z,9.10
2019-05-11T19:40:09.147Z,9.10
2019-05-11T19:42:54.634Z,9.10
2019-05-11T19:45:24.080Z,9.20
2019-05-11T19:47:52.844Z,9.10
2019-05-11T19:50:21.373Z,9.10
2019-05-11T19:52:49.945Z,9.10
2019-05-11T19:55:18.489Z,9.00
2019-05-11T19:57:48.240Z,9.00
2019-05-11T20:00:18.669Z,9.00
2019-05-11T20:02:47.294Z,9.20
2019-05-11T20:05:18.165Z,9.00
2019-05-11T20:07:48.289Z,9.10
2019-05-11T20:10:18.583Z,9.10
2019-05-11T20:12:48.380Z,9.10
2019-05-11T20:15:18.846Z,9.20
2019-05-11T20:17:48.668Z,9.30
2019-05-11T20:20:18.417Z,9.10
2019-05-11T20:22:48.349Z,9.20
2019-05-11T20:25:18.505Z,9.20
2019-05-11T20:27:48.540Z,9.30
2019-05-11T20:30:18.582Z,9.30
2019-05-11T20:32:48.539Z,9.10
2019-05-11T20:35:17.620Z,9.00
2019-05-11T20:37:46.182Z,9.10
2019-05-11T20:40:14.849Z,9.10
2019-05-11T20:42:43.417Z,9.10
2019-05-11T20:45:12.223Z,9.10
2019-05-11T20:47:40.870Z,9.00
2019-05-11T20:50:09.565Z,8.90
2019-05-11T20:52:39.147Z,9.00
2019-05-11T20:55:08.800Z,9.00
2019-05-11T20:57:39.359Z,8.90
2019-05-11T21:00:13.209Z,8.90
2019-05-11T21:02:42.036Z,9.00
2019-05-11T21:05:10.782Z,8.80
2019-05-11T21:07:39.582Z,8.80
2019-05-11T21:10:08.976Z,8.80
2019-05-11T21:12:38.761Z,8.80
2019-05-11T21:15:09.455Z,8.60
2019-05-11T21:17:38.059Z,8.60
2019-05-11T21:20:07.581Z,8.60
2019-05-11T21:22:40.063Z,8.60
2019-05-11T21:25:09.100Z,8.80
2019-05-11T21:27:38.431Z,8.70
2019-05-11T21:30:09.220Z,8.80
2019-05-11T21:32:39.232Z,8.50
2019-05-11T21:35:09.098Z,8.50
2019-05-11T21:37:38.814Z,8.50
2019-05-11T21:40:08.950Z,8.30
2019-05-11T21:42:39.109Z,8.20
2019-05-11T21:45:09.924Z,8.10
2019-05-11T21:47:39.311Z,7.90
2019-05-11T21:50:09.435Z,7.80
2019-05-11T21:52:38.699Z,7.70
2019-05-11T21:55:09.764Z,7.60
2019-05-11T21:57:38.631Z,7.70
2019-05-11T22:00:09.391Z,7.70
2019-05-11T22:02:38.553Z,7.80
2019-05-11T22:05:09.730Z,7.60
2019-05-11T22:07:41.589Z,7.60
2019-05-11T22:10:09.523Z,7.50
2019-05-11T22:12:39.144Z,7.50
2019-05-11T22:15:10.107Z,7.40
2019-05-11T22:17:39.610Z,7.30
2019-05-11T22:20:09.468Z,7.40
2019-05-11T22:22:38.901Z,7.60
2019-05-11T22:25:08.924Z,7.90
2019-05-11T22:27:38.872Z,7.80
2019-05-11T22:30:08.921Z,7.90
2019-05-11T22:32:38.333Z,7.80
2019-05-11T22:35:09.182Z,7.60
2019-05-11T22:37:38.821Z,7.40
2019-05-11T22:40:08.724Z,7.30
2019-05-11T22:42:37.810Z,7.30
2019-05-11T22:45:08.724Z,7.20
2019-05-11T22:47:39.334Z,7.20
2019-05-11T22:50:09.721Z,7.20
2019-05-11T22:52:40.304Z,7.30
2019-05-11T22:55:12.017Z,7.40
2019-05-11T22:57:39.550Z,7.50
2019-05-11T23:00:10.199Z,7.60
2019-05-11T23:02:38.849Z,7.50
2019-05-11T23:05:08.951Z,7.50
2019-05-11T23:07:41.420Z,7.40
2019-05-11T23:10:09.778Z,7.30
2019-05-11T23:12:38.723Z,7.30
2019-05-11T23:15:09.971Z,7.30
2019-05-11T23:17:38.845Z,7.30
2019-05-11T23:20:07.846Z,7.30
2019-05-11T23:22:51.264Z,7.40
2019-05-11T23:25:08.390Z,7.30
2019-05-11T23:27:39.132Z,7.40
2019-05-11T23:30:08.790Z,7.30
2019-05-11T23:32:37.970Z,7.30
2019-05-11T23:35:08.344Z,7.30
2019-05-11T23:37:38.703Z,7.40
2019-05-11T23:40:09.555Z,7.30
2019-05-11T23:42:38.315Z,7.30
2019-05-11T23:45:08.965Z,7.30
2019-05-11T23:47:39.264Z,7.30
2019-05-11T23:50:08.692Z,7.30
2019-05-11T23:52:38.237Z,7.30
2019-05-11T23:55:08.435Z,7.30
2019-05-11T23:57:37.873Z,7.20
